sensor_id;sensor_type;location;lat;lon;timestamp;pressure;altitude;pressure_sealevel;temperature;humidity
6668;BME280;3370;47.712;9.082;2023-04-28T00:01:10;96904.88;;;11.19;88.36
6668;BME280;3370;47.712;9.082;2023-04-28T00:03:36;96899.94;;;11.14;88.40
6668;BME280;3370;47.712;9.082;2023-04-28T00:06:02;96901.75;;;11.12;87.77
6668;BME280;3370;47.712;9.082;2023-04-28T00:08:28;96910.75;;;11.03;88.40
6668;BME280;3370;47.712;9.082;2023-04-28T00:10:54;96906.91;;;11.12;87.60
6668;BME280;3370;47.712;9.082;2023-04-28T00:13:20;96907.03;;;11.09;87.38
6668;BME280;3370;47.712;9.082;2023-04-28T00:15:46;96910.53;;;11.08;86.88
6668;BME280;3370;47.712;9.082;2023-04-28T00:18:11;96895.94;;;11.08;86.50
6668;BME280;3370;47.712;9.082;2023-04-28T00:20:37;96906.38;;;11.05;85.88
6668;BME280;3370;47.712;9.082;2023-04-28T00:23:03;96906.44;;;11.04;86.30
6668;BME280;3370;47.712;9.082;2023-04-28T00:25:29;96897.81;;;11.05;86.05
6668;BME280;3370;47.712;9.082;2023-04-28T00:27:54;96902.97;;;11.05;85.76
6668;BME280;3370;47.712;9.082;2023-04-28T00:30:20;96900.47;;;11.03;86.10
6668;BME280;3370;47.712;9.082;2023-04-28T00:32:46;96890.25;;;11.02;86.41
6668;BME280;3370;47.712;9.082;2023-04-28T00:35:12;96902.34;;;11.00;86.04
6668;BME280;3370;47.712;9.082;2023-04-28T00:37:38;96899.72;;;11.01;85.57
6668;BME280;3370;47.712;9.082;2023-04-28T00:40:05;96882.38;;;11.05;84.57
6668;BME280;3370;47.712;9.082;2023-04-28T00:42:31;96882.25;;;11.08;83.87
6668;BME280;3370;47.712;9.082;2023-04-28T00:44:56;96879.94;;;11.02;84.07
6668;BME280;3370;47.712;9.082;2023-04-28T00:47:22;96876.88;;;10.95;84.53
6668;BME280;3370;47.712;9.082;2023-04-28T00:49:48;96883.13;;;10.89;84.61
6668;BME280;3370;47.712;9.082;2023-04-28T00:52:15;96879.97;;;10.84;85.15
6668;BME280;3370;47.712;9.082;2023-04-28T00:54:41;96875.84;;;10.80;85.54
6668;BME280;3370;47.712;9.082;2023-04-28T00:57:09;96879.03;;;10.85;84.96
6668;BME280;3370;47.712;9.082;2023-04-28T00:59:35;96868.47;;;10.91;84.11
6668;BME280;3370;47.712;9.082;2023-04-28T01:02:02;96872.75;;;10.91;84.02
6668;BME280;3370;47.712;9.082;2023-04-28T01:04:29;96877.22;;;10.87;83.94
6668;BME280;3370;47.712;9.082;2023-04-28T01:06:55;96885.13;;;10.84;84.05
6668;BME280;3370;47.712;9.082;2023-04-28T01:09:21;96880.19;;;10.80;83.96
6668;BME280;3370;47.712;9.082;2023-04-28T01:11:47;96872.41;;;10.81;83.59
6668;BME280;3370;47.712;9.082;2023-04-28T01:14:13;96876.03;;;10.77;83.33
6668;BME280;3370;47.712;9.082;2023-04-28T01:16:39;96876.78;;;10.79;83.19
6668;BME280;3370;47.712;9.082;2023-04-28T01:19:07;96862.25;;;10.78;83.15
6668;BME280;3370;47.712;9.082;2023-04-28T01:21:33;96870.88;;;10.77;83.31
6668;BME280;3370;47.712;9.082;2023-04-28T01:24:05;96877.84;;;10.75;83.70
6668;BME280;3370;47.712;9.082;2023-04-28T01:26:31;96876.84;;;10.78;84.21
6668;BME280;3370;47.712;9.082;2023-04-28T01:28:56;96870.56;;;10.83;83.34
6668;BME280;3370;47.712;9.082;2023-04-28T01:31:22;96859.06;;;10.73;83.78
6668;BME280;3370;47.712;9.082;2023-04-28T01:33:48;96863.13;;;10.60;85.06
6668;BME280;3370;47.712;9.082;2023-04-28T01:36:14;96866.59;;;10.59;86.01
6668;BME280;3370;47.712;9.082;2023-04-28T01:38:39;96862.47;;;10.56;86.71
6668;BME280;3370;47.712;9.082;2023-04-28T01:41:05;96857.09;;;10.61;86.46
6668;BME280;3370;47.712;9.082;2023-04-28T01:43:31;96852.84;;;10.60;86.57
6668;BME280;3370;47.712;9.082;2023-04-28T01:45:57;96863.00;;;10.63;86.20
6668;BME280;3370;47.712;9.082;2023-04-28T01:48:22;96855.72;;;10.71;86.05
6668;BME280;3370;47.712;9.082;2023-04-28T01:50:48;96863.44;;;10.71;86.22
6668;BME280;3370;47.712;9.082;2023-04-28T01:53:14;96855.44;;;10.77;87.07
6668;BME280;3370;47.712;9.082;2023-04-28T01:55:42;96862.41;;;10.75;87.42
6668;BME280;3370;47.712;9.082;2023-04-28T01:58:08;96860.75;;;10.74;87.86
6668;BME280;3370;47.712;9.082;2023-04-28T02:00:34;96860.19;;;10.67;88.88
6668;BME280;3370;47.712;9.082;2023-04-28T02:03:00;96867.38;;;10.61;90.00
6668;BME280;3370;47.712;9.082;2023-04-28T02:05:26;96869.97;;;10.61;90.32
6668;BME280;3370;47.712;9.082;2023-04-28T02:07:51;96874.19;;;10.62;89.32
6668;BME280;3370;47.712;9.082;2023-04-28T02:10:17;96875.25;;;10.58;89.25
6668;BME280;3370;47.712;9.082;2023-04-28T02:12:43;96878.72;;;10.57;89.47
6668;BME280;3370;47.712;9.082;2023-04-28T02:15:09;96873.44;;;10.60;89.78
6668;BME280;3370;47.712;9.082;2023-04-28T02:17:35;96875.09;;;10.61;90.62
6668;BME280;3370;47.712;9.082;2023-04-28T02:20:01;96880.25;;;10.61;91.33
6668;BME280;3370;47.712;9.082;2023-04-28T02:22:27;96877.50;;;10.64;92.60
6668;BME280;3370;47.712;9.082;2023-04-28T02:24:52;96884.47;;;10.62;93.51
6668;BME280;3370;47.712;9.082;2023-04-28T02:27:18;96896.94;;;10.69;94.50
6668;BME280;3370;47.712;9.082;2023-04-28T02:29:44;96897.75;;;10.52;94.46
6668;BME280;3370;47.712;9.082;2023-04-28T02:32:10;96904.84;;;10.47;95.21
6668;BME280;3370;47.712;9.082;2023-04-28T02:34:36;96907.59;;;10.44;96.36
6668;BME280;3370;47.712;9.082;2023-04-28T02:37:02;96905.91;;;10.43;97.85
6668;BME280;3370;47.712;9.082;2023-04-28T02:39:27;96912.72;;;10.44;99.14
6668;BME280;3370;47.712;9.082;2023-04-28T02:41:54;96912.88;;;10.41;100.00
6668;BME280;3370;47.712;9.082;2023-04-28T02:44:21;96909.22;;;10.45;100.00
6668;BME280;3370;47.712;9.082;2023-04-28T02:46:47;96911.81;;;10.45;100.00
6668;BME280;3370;47.712;9.082;2023-04-28T02:49:12;96913.75;;;10.40;100.00
6668;BME280;3370;47.712;9.082;2023-04-28T02:51:39;96902.84;;;10.35;100.00
6668;BME280;3370;47.712;9.082;2023-04-28T02:54:05;96894.44;;;10.31;100.00
6668;BME280;3370;47.712;9.082;2023-04-28T02:56:30;96895.34;;;10.30;100.00
6668;BME280;3370;47.712;9.082;2023-04-28T02:58:57;96900.53;;;10.29;100.00
6668;BME280;3370;47.712;9.082;2023-04-28T03:01:23;96905.28;;;10.38;100.00
6668;BME280;3370;47.712;9.082;2023-04-28T03:03:48;96917.50;;;10.33;100.00
6668;BME280;3370;47.712;9.082;2023-04-28T03:06:14;96916.38;;;10.20;100.00
6668;BME280;3370;47.712;9.082;2023-04-28T03:08:40;96909.44;;;10.22;100.00
6668;BME280;3370;47.712;9.082;2023-04-28T03:11:06;96904.59;;;10.15;100.00
6668;BME280;3370;47.712;9.082;2023-04-28T03:13:32;96904.09;;;10.07;100.00
6668;BME280;3370;47.712;9.082;2023-04-28T03:15:57;96899.94;;;10.05;100.00
6668;BME280;3370;47.712;9.082;2023-04-28T03:18:23;96904.31;;;10.03;100.00
6668;BME280;3370;47.712;9.082;2023-04-28T03:20:49;96905.91;;;10.05;100.00
6668;BME280;3370;47.712;9.082;2023-04-28T03:23:15;96925.16;;;10.15;100.00
6668;BME280;3370;47.712;9.082;2023-04-28T03:25:41;96940.56;;;10.15;100.00
6668;BME280;3370;47.712;9.082;2023-04-28T03:28:07;96945.31;;;10.04;100.00
6668;BME280;3370;47.712;9.082;2023-04-28T03:30:32;96942.91;;;10.01;100.00
6668;BME280;3370;47.712;9.082;2023-04-28T03:32:58;96944.56;;;10.02;100.00
6668;BME280;3370;47.712;9.082;2023-04-28T03:35:24;96941.34;;;9.97;100.00
6668;BME280;3370;47.712;9.082;2023-04-28T03:37:50;96921.91;;;9.91;100.00
6668;BME280;3370;47.712;9.082;2023-04-28T03:40:15;96916.94;;;9.88;100.00
6668;BME280;3370;47.712;9.082;2023-04-28T03:42:42;96915.53;;;9.81;100.00
6668;BME280;3370;47.712;9.082;2023-04-28T03:45:08;96925.25;;;9.74;100.00
6668;BME280;3370;47.712;9.082;2023-04-28T03:47:34;96923.66;;;9.72;100.00
6668;BME280;3370;47.712;9.082;2023-04-28T03:50:00;96914.47;;;9.66;100.00
6668;BME280;3370;47.712;9.082;2023-04-28T03:52:26;96920.38;;;9.68;100.00
6668;BME280;3370;47.712;9.082;2023-04-28T03:54:52;96928.69;;;9.73;100.00
6668;BME280;3370;47.712;9.082;2023-04-28T03:57:18;96935.44;;;9.76;100.00
6668;BME280;3370;47.712;9.082;2023-04-28T03:59:44;96937.03;;;9.78;100.00
6668;BME280;3370;47.712;9.082;2023-04-28T04:02:10;96921.38;;;9.85;100.00
6668;BME280;3370;47.712;9.082;2023-04-28T04:04:36;96916.94;;;9.88;100.00
6668;BME280;3370;47.712;9.082;2023-04-28T04:07:02;96919.56;;;9.87;100.00
6668;BME280;3370;47.712;9.082;2023-04-28T04:09:28;96916.38;;;9.82;100.00
6668;BME280;3370;47.712;9.082;2023-04-28T04:11:54;96919.69;;;9.84;100.00
6668;BME280;3370;47.712;9.082;2023-04-28T04:14:20;96901.03;;;9.80;100.00
6668;BME280;3370;47.712;9.082;2023-04-28T04:16:46;96902.00;;;9.77;100.00
6668;BME280;3370;47.712;9.082;2023-04-28T04:19:13;96907.91;;;9.79;100.00
6668;BME280;3370;47.712;9.082;2023-04-28T04:21:38;96908.66;;;9.82;100.00
6668;BME280;3370;47.712;9.082;2023-04-28T04:24:04;96911.22;;;9.82;100.00
6668;BME280;3370;47.712;9.082;2023-04-28T04:26:30;96909.56;;;9.81;100.00
6668;BME280;3370;47.712;9.082;2023-04-28T04:28:56;96909.56;;;9.81;100.00
6668;BME280;3370;47.712;9.082;2023-04-28T04:31:22;96910.25;;;9.84;100.00
6668;BME280;3370;47.712;9.082;2023-04-28T04:33:48;96908.66;;;9.82;100.00
6668;BME280;3370;47.712;9.082;2023-04-28T04:36:13;96901.72;;;9.84;100.00
6668;BME280;3370;47.712;9.082;2023-04-28T04:38:39;96902.91;;;9.76;100.00
6668;BME280;3370;47.712;9.082;2023-04-28T04:41:05;96912.22;;;9.79;100.00
6668;BME280;3370;47.712;9.082;2023-04-28T04:43:31;96917.34;;;9.79;100.00
6668;BME280;3370;47.712;9.082;2023-04-28T04:45:57;96928.38;;;9.81;100.00
6668;BME280;3370;47.712;9.082;2023-04-28T04:48:22;96923.09;;;9.84;100.00
6668;BME280;3370;47.712;9.082;2023-04-28T04:50:48;96918.59;;;9.89;100.00
6668;BME280;3370;47.712;9.082;2023-04-28T04:53:14;96924.25;;;9.77;100.00
6668;BME280;3370;47.712;9.082;2023-04-28T04:55:40;96907.97;;;9.78;100.00
6668;BME280;3370;47.712;9.082;2023-04-28T04:58:06;96908.94;;;9.75;100.00
6668;BME280;3370;47.712;9.082;2023-04-28T05:00:32;96895.94;;;9.78;100.00
6668;BME280;3370;47.712;9.082;2023-04-28T05:02:58;96902.63;;;9.83;100.00
6668;BME280;3370;47.712;9.082;2023-04-28T05:05:24;96902.69;;;9.81;100.00
6668;BME280;3370;47.712;9.082;2023-04-28T05:07:50;96899.28;;;9.81;100.00
6668;BME280;3370;47.712;9.082;2023-04-28T05:10:16;96902.78;;;9.79;100.00
6668;BME280;3370;47.712;9.082;2023-04-28T05:12:42;96899.16;;;9.84;100.00
6668;BME280;3370;47.712;9.082;2023-04-28T05:15:09;96897.41;;;9.84;100.00
6668;BME280;3370;47.712;9.082;2023-04-28T05:17:35;96898.03;;;9.89;100.00
6668;BME280;3370;47.712;9.082;2023-04-28T05:20:02;96895.47;;;9.89;100.00
6668;BME280;3370;47.712;9.082;2023-04-28T05:22:28;96897.97;;;9.91;100.00
6668;BME280;3370;47.712;9.082;2023-04-28T05:24:55;96900.34;;;9.95;100.00
6668;BME280;3370;47.712;9.082;2023-04-28T05:27:21;96897.56;;;10.00;100.00
6668;BME280;3370;47.712;9.082;2023-04-28T05:29:47;96894.03;;;10.03;100.00
6668;BME280;3370;47.712;9.082;2023-04-28T05:32:12;96895.56;;;10.07;100.00
6668;BME280;3370;47.712;9.082;2023-04-28T05:34:38;96894.56;;;10.09;100.00
6668;BME280;3370;47.712;9.082;2023-04-28T05:37:04;96887.31;;;10.19;100.00
6668;BME280;3370;47.712;9.082;2023-04-28T05:39:30;96892.22;;;10.24;100.00
6668;BME280;3370;47.712;9.082;2023-04-28T05:41:55;96890.56;;;10.23;100.00
6668;BME280;3370;47.712;9.082;2023-04-28T05:44:23;96892.28;;;10.22;100.00
6668;BME280;3370;47.712;9.082;2023-04-28T05:46:49;96886.66;;;10.14;100.00
6668;BME280;3370;47.712;9.082;2023-04-28T05:49:15;96880.28;;;10.23;100.00
6668;BME280;3370;47.712;9.082;2023-04-28T05:51:41;96888.47;;;10.31;100.00
6668;BME280;3370;47.712;9.082;2023-04-28T05:54:07;96887.28;;;10.38;100.00
6668;BME280;3370;47.712;9.082;2023-04-28T05:56:33;96898.50;;;10.37;100.00
6668;BME280;3370;47.712;9.082;2023-04-28T05:58:58;96901.13;;;10.35;100.00
6668;BME280;3370;47.712;9.082;2023-04-28T06:01:31;96898.25;;;10.42;100.00
6668;BME280;3370;47.712;9.082;2023-04-28T06:03:57;96896.38;;;10.45;100.00
6668;BME280;3370;47.712;9.082;2023-04-28T06:06:24;96903.47;;;10.40;100.00
6668;BME280;3370;47.712;9.082;2023-04-28T06:08:50;96904.03;;;10.47;100.00
6668;BME280;3370;47.712;9.082;2023-04-28T06:11:16;96900.66;;;10.64;100.00
6668;BME280;3370;47.712;9.082;2023-04-28T06:13:43;96902.59;;;10.59;100.00
6668;BME280;3370;47.712;9.082;2023-04-28T06:16:09;96897.47;;;10.59;100.00
6668;BME280;3370;47.712;9.082;2023-04-28T06:18:35;96913.75;;;10.59;100.00
6668;BME280;3370;47.712;9.082;2023-04-28T06:21:01;96901.78;;;10.58;100.00
6668;BME280;3370;47.712;9.082;2023-04-28T06:23:27;96908.59;;;10.59;100.00
6668;BME280;3370;47.712;9.082;2023-04-28T06:25:52;96907.69;;;10.60;100.00
6668;BME280;3370;47.712;9.082;2023-04-28T06:28:18;96912.06;;;10.58;100.00
6668;BME280;3370;47.712;9.082;2023-04-28T06:30:44;96916.84;;;10.66;100.00
6668;BME280;3370;47.712;9.082;2023-04-28T06:33:10;96913.75;;;10.77;100.00
6668;BME280;3370;47.712;9.082;2023-04-28T06:35:35;96906.34;;;10.70;100.00
6668;BME280;3370;47.712;9.082;2023-04-28T06:38:05;96904.97;;;10.63;100.00
6668;BME280;3370;47.712;9.082;2023-04-28T06:40:31;96900.06;;;10.76;100.00
6668;BME280;3370;47.712;9.082;2023-04-28T06:42:57;96891.28;;;10.80;100.00
6668;BME280;3370;47.712;9.082;2023-04-28T06:45:23;96896.91;;;10.88;100.00
6668;BME280;3370;47.712;9.082;2023-04-28T06:47:48;96893.41;;;10.89;100.00
6668;BME280;3370;47.712;9.082;2023-04-28T06:50:15;96895.97;;;10.89;100.00
6668;BME280;3370;47.712;9.082;2023-04-28T06:52:41;96897.72;;;10.89;100.00
6668;BME280;3370;47.712;9.082;2023-04-28T06:55:08;96898.50;;;10.91;100.00
6668;BME280;3370;47.712;9.082;2023-04-28T06:57:34;96895.72;;;10.96;100.00
6668;BME280;3370;47.712;9.082;2023-04-28T07:00:01;96886.09;;;10.99;100.00
6668;BME280;3370;47.712;9.082;2023-04-28T07:02:28;96884.81;;;10.90;100.00
6668;BME280;3370;47.712;9.082;2023-04-28T07:04:54;96891.00;;;10.86;100.00
6668;BME280;3370;47.712;9.082;2023-04-28T07:07:20;96890.84;;;10.89;100.00
6668;BME280;3370;47.712;9.082;2023-04-28T07:09:46;96876.03;;;10.94;100.00
6668;BME280;3370;47.712;9.082;2023-04-28T07:12:12;96878.31;;;11.01;100.00
6668;BME280;3370;47.712;9.082;2023-04-28T07:14:38;96885.09;;;11.02;100.00
6668;BME280;3370;47.712;9.082;2023-04-28T07:17:03;96885.78;;;11.05;100.00
6668;BME280;3370;47.712;9.082;2023-04-28T07:19:29;96872.84;;;11.07;100.00
6668;BME280;3370;47.712;9.082;2023-04-28T07:21:55;96874.28;;;11.12;100.00
6668;BME280;3370;47.712;9.082;2023-04-28T07:24:21;96881.91;;;11.14;100.00
6668;BME280;3370;47.712;9.082;2023-04-28T07:26:48;96886.06;;;11.17;100.00
6668;BME280;3370;47.712;9.082;2023-04-28T07:29:14;96880.84;;;11.18;100.00
6668;BME280;3370;47.712;9.082;2023-04-28T07:31:40;96878.06;;;11.23;100.00
6668;BME280;3370;47.712;9.082;2023-04-28T07:34:06;96875.25;;;11.27;100.00
6668;BME280;3370;47.712;9.082;2023-04-28T07:36:33;96868.78;;;11.36;100.00
6668;BME280;3370;47.712;9.082;2023-04-28T07:38:59;96865.47;;;11.34;100.00
6668;BME280;3370;47.712;9.082;2023-04-28T07:41:27;96883.56;;;11.32;100.00
6668;BME280;3370;47.712;9.082;2023-04-28T07:43:53;96878.50;;;11.31;100.00
6668;BME280;3370;47.712;9.082;2023-04-28T07:46:19;96887.56;;;11.38;100.00
6668;BME280;3370;47.712;9.082;2023-04-28T07:48:45;96901.66;;;11.31;100.00
6668;BME280;3370;47.712;9.082;2023-04-28T07:51:10;96921.97;;;11.20;100.00
6668;BME280;3370;47.712;9.082;2023-04-28T07:53:36;96923.41;;;11.08;100.00
6668;BME280;3370;47.712;9.082;2023-04-28T07:56:02;96937.09;;;11.08;100.00
6668;BME280;3370;47.712;9.082;2023-04-28T07:58:28;96925.22;;;11.06;100.00
6668;BME280;3370;47.712;9.082;2023-04-28T08:00:54;96930.78;;;10.97;100.00
6668;BME280;3370;47.712;9.082;2023-04-28T08:03:19;96921.19;;;11.00;100.00
6668;BME280;3370;47.712;9.082;2023-04-28T08:05:46;96907.66;;;10.97;100.00
6668;BME280;3370;47.712;9.082;2023-04-28T08:08:11;96930.63;;;10.82;100.00
6668;BME280;3370;47.712;9.082;2023-04-28T08:10:37;96931.41;;;10.84;100.00
6668;BME280;3370;47.712;9.082;2023-04-28T08:13:06;96935.34;;;10.91;100.00
6668;BME280;3370;47.712;9.082;2023-04-28T08:15:32;96935.94;;;10.97;100.00
6668;BME280;3370;47.712;9.082;2023-04-28T08:17:58;96938.50;;;10.97;100.00
6668;BME280;3370;47.712;9.082;2023-04-28T08:20:23;96933.53;;;10.93;100.00
6668;BME280;3370;47.712;9.082;2023-04-28T08:22:49;96930.22;;;10.91;100.00
6668;BME280;3370;47.712;9.082;2023-04-28T08:25:15;96922.78;;;10.85;100.00
6668;BME280;3370;47.712;9.082;2023-04-28T08:27:41;96933.81;;;10.87;100.00
6668;BME280;3370;47.712;9.082;2023-04-28T08:30:08;96924.28;;;10.89;100.00
6668;BME280;3370;47.712;9.082;2023-04-28T08:32:34;96927.34;;;10.98;100.00
6668;BME280;3370;47.712;9.082;2023-04-28T08:35:00;96915.09;;;11.03;100.00
6668;BME280;3370;47.712;9.082;2023-04-28T08:37:26;96915.69;;;11.08;100.00
6668;BME280;3370;47.712;9.082;2023-04-28T08:39:52;96906.66;;;11.17;100.00
6668;BME280;3370;47.712;9.082;2023-04-28T08:42:28;96915.91;;;11.21;100.00
6668;BME280;3370;47.712;9.082;2023-04-28T08:44:56;96918.56;;;11.37;100.00
6668;BME280;3370;47.712;9.082;2023-04-28T08:50:08;96947.16;;;11.30;100.00
6668;BME280;3370;47.712;9.082;2023-04-28T08:52:35;96949.00;;;11.28;100.00
6668;BME280;3370;47.712;9.082;2023-04-28T08:55:06;96941.72;;;11.37;100.00
6668;BME280;3370;47.712;9.082;2023-04-28T08:57:43;96944.41;;;11.51;100.00
6668;BME280;3370;47.712;9.082;2023-04-28T09:00:10;96938.97;;;11.57;100.00
6668;BME280;3370;47.712;9.082;2023-04-28T09:02:37;96939.19;;;11.70;100.00
6668;BME280;3370;47.712;9.082;2023-04-28T09:05:07;96931.06;;;11.78;100.00
6668;BME280;3370;47.712;9.082;2023-04-28T09:07:34;96939.16;;;11.87;100.00
6668;BME280;3370;47.712;9.082;2023-04-28T09:10:20;96937.84;;;11.96;100.00
6668;BME280;3370;47.712;9.082;2023-04-28T09:12:50;96934.22;;;12.00;100.00
6668;BME280;3370;47.712;9.082;2023-04-28T09:15:33;96936.47;;;12.06;100.00
6668;BME280;3370;47.712;9.082;2023-04-28T09:18:04;96931.31;;;12.06;100.00
6668;BME280;3370;47.712;9.082;2023-04-28T09:20:32;96932.06;;;12.08;100.00
6668;BME280;3370;47.712;9.082;2023-04-28T09:23:19;96930.41;;;12.07;100.00
6668;BME280;3370;47.712;9.082;2023-04-28T09:26:05;96926.16;;;12.06;100.00
6668;BME280;3370;47.712;9.082;2023-04-28T09:28:33;96934.53;;;11.94;100.00
6668;BME280;3370;47.712;9.082;2023-04-28T09:31:00;96947.72;;;11.88;100.00
6668;BME280;3370;47.712;9.082;2023-04-28T09:33:26;96934.59;;;11.93;100.00
6668;BME280;3370;47.712;9.082;2023-04-28T09:35:52;96937.28;;;12.07;100.00
6668;BME280;3370;47.712;9.082;2023-04-28T09:38:20;96939.06;;;11.89;100.00
6668;BME280;3370;47.712;9.082;2023-04-28T09:40:58;96939.38;;;11.83;100.00
6668;BME280;3370;47.712;9.082;2023-04-28T09:43:33;96938.38;;;11.85;100.00
6668;BME280;3370;47.712;9.082;2023-04-28T09:46:03;96941.34;;;11.78;100.00
6668;BME280;3370;47.712;9.082;2023-04-28T09:48:37;96938.09;;;11.92;100.00
6668;BME280;3370;47.712;9.082;2023-04-28T09:51:05;96936.47;;;11.89;100.00
6668;BME280;3370;47.712;9.082;2023-04-28T09:53:33;96941.50;;;11.75;100.00
6668;BME280;3370;47.712;9.082;2023-04-28T09:56:02;96945.47;;;11.64;100.00
6668;BME280;3370;47.712;9.082;2023-04-28T09:58:29;96953.63;;;11.73;100.00
6668;BME280;3370;47.712;9.082;2023-04-28T10:00:58;96956.06;;;11.58;100.00
6668;BME280;3370;47.712;9.082;2023-04-28T10:03:28;96955.50;;;11.53;100.00
6668;BME280;3370;47.712;9.082;2023-04-28T10:05:55;96959.44;;;11.43;100.00
6668;BME280;3370;47.712;9.082;2023-04-28T10:08:23;96964.44;;;11.46;100.00
6668;BME280;3370;47.712;9.082;2023-04-28T10:10:51;96962.38;;;11.52;100.00
6668;BME280;3370;47.712;9.082;2023-04-28T10:13:22;96957.28;;;11.51;100.00
6668;BME280;3370;47.712;9.082;2023-04-28T10:15:49;96955.31;;;11.56;100.00
6668;BME280;3370;47.712;9.082;2023-04-28T10:18:16;96955.31;;;11.56;100.00
6668;BME280;3370;47.712;9.082;2023-04-28T10:20:46;96952.22;;;11.67;100.00
6668;BME280;3370;47.712;9.082;2023-04-28T10:26:19;96951.91;;;11.73;100.00
6668;BME280;3370;47.712;9.082;2023-04-28T10:28:47;96947.03;;;11.84;100.00
6668;BME280;3370;47.712;9.082;2023-04-28T10:31:17;96940.28;;;11.99;100.00
6668;BME280;3370;47.712;9.082;2023-04-28T10:33:45;96942.44;;;11.91;100.00
6668;BME280;3370;47.712;9.082;2023-04-28T10:36:51;96946.78;;;11.89;100.00
6668;BME280;3370;47.712;9.082;2023-04-28T10:39:19;96957.09;;;11.89;100.00
6668;BME280;3370;47.712;9.082;2023-04-28T10:41:46;96944.84;;;11.77;100.00
6668;BME280;3370;47.712;9.082;2023-04-28T10:47:05;96944.19;;;11.89;100.00
6668;BME280;3370;47.712;9.082;2023-04-28T10:55:29;96936.19;;;11.78;100.00
6668;BME280;3370;47.712;9.082;2023-04-28T11:04:25;96941.16;;;11.65;100.00
6668;BME280;3370;47.712;9.082;2023-04-28T11:07:10;96942.44;;;11.56;100.00
6668;BME280;3370;47.712;9.082;2023-04-28T11:12:05;96943.97;;;11.60;100.00
6668;BME280;3370;47.712;9.082;2023-04-28T11:14:36;96938.50;;;11.66;100.00
6668;BME280;3370;47.712;9.082;2023-04-28T11:17:06;96944.25;;;11.72;100.00
6668;BME280;3370;47.712;9.082;2023-04-28T11:19:34;96937.59;;;11.67;100.00
6668;BME280;3370;47.712;9.082;2023-04-28T11:22:06;96943.34;;;11.73;100.00
6668;BME280;3370;47.712;9.082;2023-04-28T11:24:37;96938.78;;;11.78;100.00
6668;BME280;3370;47.712;9.082;2023-04-28T11:27:03;96938.19;;;11.90;100.00
6668;BME280;3370;47.712;9.082;2023-04-28T11:29:39;96937.09;;;11.94;100.00
6668;BME280;3370;47.712;9.082;2023-04-28T11:32:07;96941.34;;;11.95;100.00
6668;BME280;3370;47.712;9.082;2023-04-28T11:34:34;96945.75;;;11.93;100.00
6668;BME280;3370;47.712;9.082;2023-04-28T11:37:01;96942.25;;;11.94;100.00
6668;BME280;3370;47.712;9.082;2023-04-28T11:39:30;96940.75;;;11.90;100.00
6668;BME280;3370;47.712;9.082;2023-04-28T11:41:58;96942.09;;;11.97;100.00
6668;BME280;3370;47.712;9.082;2023-04-28T11:44:27;96946.03;;;11.87;100.00
6668;BME280;3370;47.712;9.082;2023-04-28T11:46:59;96939.75;;;11.93;100.00
6668;BME280;3370;47.712;9.082;2023-04-28T11:49:31;96935.63;;;12.06;100.00
6668;BME280;3370;47.712;9.082;2023-04-28T11:52:07;96941.78;;;12.03;100.00
6668;BME280;3370;47.712;9.082;2023-04-28T11:54:33;96932.22;;;12.21;100.00
6668;BME280;3370;47.712;9.082;2023-04-28T11:57:00;96930.66;;;12.51;100.00
6668;BME280;3370;47.712;9.082;2023-04-28T11:59:33;96924.66;;;12.82;100.00
6668;BME280;3370;47.712;9.082;2023-04-28T12:02:02;96929.91;;;13.11;100.00
6668;BME280;3370;47.712;9.082;2023-04-28T12:04:42;96930.88;;;13.24;100.00
6668;BME280;3370;47.712;9.082;2023-04-28T12:07:13;96932.91;;;13.03;100.00
6668;BME280;3370;47.712;9.082;2023-04-28T12:10:08;96933.78;;;12.88;100.00
6668;BME280;3370;47.712;9.082;2023-04-28T12:12:34;96929.31;;;12.75;100.00
6668;BME280;3370;47.712;9.082;2023-04-28T12:15:05;96934.91;;;12.83;100.00
6668;BME280;3370;47.712;9.082;2023-04-28T12:17:37;96928.44;;;12.91;100.00
6668;BME280;3370;47.712;9.082;2023-04-28T12:20:09;96935.78;;;12.82;100.00
6668;BME280;3370;47.712;9.082;2023-04-28T12:22:48;96928.44;;;12.91;100.00
6668;BME280;3370;47.712;9.082;2023-04-28T12:25:17;96933.00;;;13.01;100.00
6668;BME280;3370;47.712;9.082;2023-04-28T12:28:04;96941.19;;;13.24;100.00
6668;BME280;3370;47.712;9.082;2023-04-28T12:30:37;96928.63;;;13.48;100.00
6668;BME280;3370;47.712;9.082;2023-04-28T12:33:26;96915.56;;;13.80;100.00
6668;BME280;3370;47.712;9.082;2023-04-28T12:35:53;96917.69;;;14.02;100.00
6668;BME280;3370;47.712;9.082;2023-04-28T12:38:24;96916.09;;;14.14;100.00
6668;BME280;3370;47.712;9.082;2023-04-28T12:40:50;96912.44;;;13.89;100.00
6668;BME280;3370;47.712;9.082;2023-04-28T12:43:16;96910.81;;;14.15;100.00
6668;BME280;3370;47.712;9.082;2023-04-28T12:45:42;96912.56;;;14.29;100.00
6668;BME280;3370;47.712;9.082;2023-04-28T12:48:08;96911.75;;;14.14;100.00
6668;BME280;3370;47.712;9.082;2023-04-28T12:50:33;96912.41;;;14.18;100.00
6668;BME280;3370;47.712;9.082;2023-04-28T12:52:59;96903.69;;;14.19;100.00
6668;BME280;3370;47.712;9.082;2023-04-28T12:55:25;96903.44;;;14.09;100.00
6668;BME280;3370;47.712;9.082;2023-04-28T12:57:51;96906.69;;;13.98;100.00
6668;BME280;3370;47.712;9.082;2023-04-28T13:00:17;96902.81;;;14.06;100.00
6668;BME280;3370;47.712;9.082;2023-04-28T13:02:48;96913.06;;;14.07;100.00
6668;BME280;3370;47.712;9.082;2023-04-28T13:05:14;96899.84;;;13.97;100.00
6668;BME280;3370;47.712;9.082;2023-04-28T13:07:40;96903.19;;;13.99;100.00
6668;BME280;3370;47.712;9.082;2023-04-28T13:10:07;96899.81;;;14.26;100.00
6668;BME280;3370;47.712;9.082;2023-04-28T13:12:33;96899.88;;;14.39;100.00
6668;BME280;3370;47.712;9.082;2023-04-28T13:15:02;96894.06;;;14.35;100.00
6668;BME280;3370;47.712;9.082;2023-04-28T13:17:29;96884.44;;;14.37;100.00
6668;BME280;3370;47.712;9.082;2023-04-28T13:19:55;96881.84;;;14.37;100.00
6668;BME280;3370;47.712;9.082;2023-04-28T13:22:21;96885.00;;;14.43;100.00
6668;BME280;3370;47.712;9.082;2023-04-28T13:24:47;96881.03;;;14.37;100.00
6668;BME280;3370;47.712;9.082;2023-04-28T13:27:13;96875.22;;;14.33;100.00
6668;BME280;3370;47.712;9.082;2023-04-28T13:29:39;96874.22;;;14.36;100.00
6668;BME280;3370;47.712;9.082;2023-04-28T13:32:05;96875.09;;;14.49;100.00
6668;BME280;3370;47.712;9.082;2023-04-28T13:34:31;96872.00;;;14.57;100.00
6668;BME280;3370;47.712;9.082;2023-04-28T13:36:57;96862.59;;;14.56;100.00
6668;BME280;3370;47.712;9.082;2023-04-28T13:39:23;96863.41;;;14.71;100.00